Time;durP1;ratioP1;P1;durP2;ratioP2;P2;SDS_P1;SDS_P2;PMS_P1;PMS_P2;Temp;Humidity;BMP_temperature;BMP_pressure;BME280_temperature;BME280_humidity;BME280_pressure;Samples;Min_cycle;Max_cycle;Signal;HPM_P1;HPM_P2
2023/08/23 00:01:04;;;;;;;;;;;;;;;23.46;nan;101884.03;5062848;28;19933;-78
2023/08/23 00:03:29;;;;;;;;;;;;;;;23.44;nan;101887.06;5061233;28;19979;-78
2023/08/23 00:05:54;;;;;;;;;;;;;;;23.43;nan;101884.66;5065758;28;19925;-79
2023/08/23 00:08:20;;;;;;;;;;;;;;;23.42;nan;101888.50;5061620;28;19925;-78
2023/08/23 00:10:51;;;;;;;;;;;;;;;23.41;nan;101884.16;5057182;28;19928;-78
2023/08/23 00:13:17;;;;;;;;;;;;;;;23.38;nan;101888.31;5059215;28;19920;-78
2023/08/23 00:15:42;;;;;;;;;;;;;;;23.35;nan;101888.13;5061375;28;20434;-78
2023/08/23 00:18:07;;;;;;;;;;;;;;;23.32;nan;101888.72;5056992;28;19969;-78
2023/08/23 00:20:33;;;;;;;;;;;;;;;23.29;nan;101884.66;5059734;28;19939;-78
2023/08/23 00:22:58;;;;;;;;;;;;;;;23.27;nan;101886.09;5055981;28;19959;-78
2023/08/23 00:25:23;;;;;;;;;;;;;;;23.23;nan;101885.91;5060897;28;19959;-79
2023/08/23 00:27:48;;;;;;;;;;;;;;;23.19;nan;101891.19;5065259;28;20155;-78
2023/08/23 00:30:14;;;;;;;;;;;;;;;23.18;nan;101886.81;5059976;28;19936;-78
2023/08/23 00:32:39;;;;;;;;;;;;;;;23.16;nan;101885.47;5066722;28;19916;-78
2023/08/23 00:35:05;;;;;;;;;;;;;;;23.16;nan;101886.31;5063371;28;20007;-78
2023/08/23 00:37:30;;;;;;;;;;;;;;;23.15;nan;101878.41;5065573;28;19923;-78
2023/08/23 00:39:55;;;;;;;;;;;;;;;23.13;nan;101875.16;5069598;28;19920;-78
2023/08/23 00:42:21;;;;;;;;;;;;;;;23.10;nan;101882.06;5066561;28;20469;-79
2023/08/23 00:44:46;;;;;;;;;;;;;;;23.07;nan;101876.41;5065947;28;19931;-78
2023/08/23 00:47:11;;;;;;;;;;;;;;;23.03;nan;101887.13;5058314;28;19917;-78
2023/08/23 00:49:37;;;;;;;;;;;;;;;22.96;nan;101889.44;5061609;28;20274;-78
2023/08/23 00:52:04;;;;;;;;;;;;;;;22.91;nan;101895.03;5064018;28;20410;-78
2023/08/23 00:54:29;;;;;;;;;;;;;;;22.77;nan;101911.38;5065116;28;19916;-78
2023/08/23 00:56:56;;;;;;;;;;;;;;;22.67;nan;101918.97;5055949;28;20380;-79
2023/08/23 00:59:22;;;;;;;;;;;;;;;22.68;nan;101926.84;5054863;28;19924;-78
2023/08/23 01:01:47;;;;;;;;;;;;;;;22.73;nan;101918.56;5059599;28;20005;-78
2023/08/23 01:04:12;;;;;;;;;;;;;;;22.76;nan;101930.81;5059260;28;20269;-78
2023/08/23 01:06:46;;;;;;;;;;;;;;;22.79;nan;101914.59;5057239;28;20392;-78
2023/08/23 01:09:15;;;;;;;;;;;;;;;22.76;nan;101922.59;5062477;28;19922;-78
2023/08/23 01:11:41;;;;;;;;;;;;;;;22.76;nan;101920.69;5059064;28;19940;-78
2023/08/23 01:14:16;;;;;;;;;;;;;;;22.74;nan;101911.16;5061419;28;19917;-78
2023/08/23 01:16:42;;;;;;;;;;;;;;;22.72;nan;101907.94;5058891;28;19920;-79
2023/08/23 01:19:26;;;;;;;;;;;;;;;22.69;nan;101901.16;5059681;28;20451;-79
2023/08/23 01:21:53;;;;;;;;;;;;;;;22.66;nan;101900.94;5054229;28;19925;-79
2023/08/23 01:24:18;;;;;;;;;;;;;;;22.58;nan;101905.97;5055713;28;19920;-79
2023/08/23 01:26:43;;;;;;;;;;;;;;;22.52;nan;101909.94;5054500;28;19920;-79
2023/08/23 01:29:09;;;;;;;;;;;;;;;22.50;nan;101903.97;5057158;28;19916;-79
2023/08/23 01:31:38;;;;;;;;;;;;;;;22.47;nan;101898.28;5065477;28;20289;-79
2023/08/23 01:34:20;;;;;;;;;;;;;;;22.45;nan;101893.13;5063918;28;19917;-79
2023/08/23 01:36:46;;;;;;;;;;;;;;;22.43;nan;101900.78;5064029;28;20119;-79
2023/08/23 01:39:12;;;;;;;;;;;;;;;22.43;nan;101903.53;5059658;28;20410;-79
2023/08/23 01:41:38;;;;;;;;;;;;;;;22.41;nan;101894.00;5064611;28;19916;-79
2023/08/23 01:44:04;;;;;;;;;;;;;;;22.41;nan;101904.94;5063867;28;20300;-79
2023/08/23 01:46:29;;;;;;;;;;;;;;;22.40;nan;101898.66;5061401;28;20380;-79
2023/08/23 01:48:55;;;;;;;;;;;;;;;22.40;nan;101895.94;5064129;28;20399;-79
2023/08/23 01:51:20;;;;;;;;;;;;;;;22.38;nan;101892.69;5057726;28;20217;-79
2023/08/23 01:53:45;;;;;;;;;;;;;;;;;;5059830;28;19924;-79
2023/08/23 01:56:11;;;;;;;;;;;;;;;22.24;nan;101902.75;5061928;28;19920;-78
2023/08/23 01:58:36;;;;;;;;;;;;;;;22.16;nan;101906.19;5058096;28;19917;-79
2023/08/23 02:01:01;;;;;;;;;;;;;;;22.08;nan;101904.91;5062008;28;20151;-79
2023/08/23 02:03:26;;;;;;;;;;;;;;;22.02;nan;101901.44;5059011;28;19917;-79
2023/08/23 02:05:54;;;;;;;;;;;;;;;21.96;nan;101899.91;5061287;28;20040;-79
2023/08/23 02:08:19;;;;;;;;;;;;;;;21.96;nan;101899.09;5060843;28;19916;-79
2023/08/23 02:10:44;;;;;;;;;;;;;;;21.92;nan;101900.81;5059801;28;21165;-79
2023/08/23 02:13:09;;;;;;;;;;;;;;;21.86;nan;101902.78;5062063;28;19931;-79
2023/08/23 02:15:35;;;;;;;;;;;;;;;21.88;nan;101899.75;5058417;28;19921;-79
2023/08/23 02:18:00;;;;;;;;;;;;;;;21.87;nan;101893.50;5060611;28;20407;-78
2023/08/23 02:20:26;;;;;;;;;;;;;;;21.88;nan;101892.38;5057474;28;20327;-78
2023/08/23 02:22:51;;;;;;;;;;;;;;;21.88;nan;101889.66;5059547;28;19924;-79
2023/08/23 02:25:16;;;;;;;;;;;;;;;21.86;nan;101889.16;5056885;28;19920;-79
2023/08/23 02:27:42;;;;;;;;;;;;;;;21.87;nan;101884.50;5055894;28;19958;-79
2023/08/23 02:30:07;;;;;;;;;;;;;;;21.87;nan;101888.03;5058475;28;19920;-79
2023/08/23 02:32:33;;;;;;;;;;;;;;;21.85;nan;101892.97;5054512;28;19966;-79
2023/08/23 02:34:58;;;;;;;;;;;;;;;21.84;nan;101887.81;5059524;28;19923;-79
2023/08/23 02:37:24;;;;;;;;;;;;;;;21.84;nan;101887.81;5059505;28;19923;-79
2023/08/23 02:39:49;;;;;;;;;;;;;;;21.85;nan;101884.78;5061057;28;19920;-79
2023/08/23 02:42:14;;;;;;;;;;;;;;;21.86;nan;101888.34;5060820;28;19928;-79
2023/08/23 02:44:39;;;;;;;;;;;;;;;21.87;nan;101882.56;5062207;28;20114;-79
2023/08/23 02:47:05;;;;;;;;;;;;;;;21.87;nan;101885.31;5059817;28;20395;-79
2023/08/23 02:49:30;;;;;;;;;;;;;;;21.88;nan;101878.75;5058589;28;19982;-79
2023/08/23 02:51:56;;;;;;;;;;;;;;;21.87;nan;101881.75;5059049;28;20424;-79
2023/08/23 02:54:21;;;;;;;;;;;;;;;21.84;nan;101880.44;5059027;28;19960;-79
2023/08/23 02:56:46;;;;;;;;;;;;;;;21.84;nan;101885.09;5055975;28;19927;-79
2023/08/23 02:59:12;;;;;;;;;;;;;;;21.86;nan;101880.16;5054742;28;20329;-79
2023/08/23 03:01:37;;;;;;;;;;;;;;;21.88;nan;101878.75;5056643;28;20458;-79
2023/08/23 03:04:02;;;;;;;;;;;;;;;21.90;nan;101886.63;5058928;28;19970;-79
2023/08/23 03:06:27;;;;;;;;;;;;;;;21.91;nan;101883.63;5054647;28;19956;-79
2023/08/23 03:08:53;;;;;;;;;;;;;;;21.92;nan;101884.44;5058828;28;19942;-79
2023/08/23 03:11:18;;;;;;;;;;;;;;;21.92;nan;101879.78;5056238;28;19954;-79
2023/08/23 03:13:43;;;;;;;;;;;;;;;21.93;nan;101886.06;5059360;28;20289;-79
2023/08/23 03:16:09;;;;;;;;;;;;;;;21.91;nan;101878.16;5058137;28;20540;-79
2023/08/23 03:18:34;;;;;;;;;;;;;;;21.90;nan;101882.00;5057079;28;19932;-79
2023/08/23 03:20:59;;;;;;;;;;;;;;;21.91;nan;101888.28;5059514;28;19916;-79
2023/08/23 03:23:25;;;;;;;;;;;;;;;21.91;nan;101888.28;5059828;28;19916;-79
2023/08/23 03:25:50;;;;;;;;;;;;;;;21.91;nan;101894.53;5057921;28;19978;-79
2023/08/23 03:28:15;;;;;;;;;;;;;;;21.91;nan;101894.53;5058646;28;19921;-81
2023/08/23 03:30:41;;;;;;;;;;;;;;;21.91;nan;101897.28;5058015;28;20029;-80
2023/08/23 03:33:07;;;;;;;;;;;;;;;21.91;nan;101900.00;5061859;28;19916;-80
2023/08/23 03:35:32;;;;;;;;;;;;;;;21.91;nan;101905.44;5061487;28;19922;-80
2023/08/23 03:37:58;;;;;;;;;;;;;;;21.89;nan;101901.38;5072161;28;19917;-80
2023/08/23 03:40:23;;;;;;;;;;;;;;;21.87;nan;101898.13;5061249;28;20404;-80
2023/08/23 03:42:48;;;;;;;;;;;;;;;21.85;nan;101890.25;5062140;28;19987;-80
2023/08/23 03:45:14;;;;;;;;;;;;;;;21.83;nan;101887.00;5060910;28;20199;-80
2023/08/23 03:47:39;;;;;;;;;;;;;;;21.80;nan;101893.06;5058303;28;19927;-80
2023/08/23 03:50:05;;;;;;;;;;;;;;;21.79;nan;101887.91;5059836;28;20247;-80
2023/08/23 03:52:30;;;;;;;;;;;;;;;21.77;nan;101882.75;5060061;28;20015;-80
2023/08/23 03:54:55;;;;;;;;;;;;;;;21.76;nan;101885.78;5059501;28;20266;-80
2023/08/23 03:57:21;;;;;;;;;;;;;;;21.76;nan;101877.59;5058447;28;19929;-80
2023/08/23 03:59:46;;;;;;;;;;;;;;;21.72;nan;101880.06;5057961;28;20480;-81
2023/08/23 04:02:11;;;;;;;;;;;;;;;21.67;nan;101875.50;5061941;28;19978;-80
2023/08/23 04:04:36;;;;;;;;;;;;;;;21.66;nan;101876.63;5061252;28;20937;-80
2023/08/23 04:07:02;;;;;;;;;;;;;;;21.65;nan;101885.91;5061089;28;19920;-80
2023/08/23 04:09:27;;;;;;;;;;;;;;;21.66;nan;101881.25;5058470;28;19932;-80
2023/08/23 04:11:52;;;;;;;;;;;;;;;21.64;nan;101887.03;5057807;28;19924;-80
2023/08/23 04:14:18;;;;;;;;;;;;;;;21.67;nan;101880.16;5060144;28;19959;-80
2023/08/23 04:16:43;;;;;;;;;;;;;;;21.67;nan;101885.63;5055478;28;20010;-80
2023/08/23 04:19:09;;;;;;;;;;;;;;;21.66;nan;101886.72;5061578;28;19923;-80
2023/08/23 04:21:34;;;;;;;;;;;;;;;21.65;nan;101890.56;5059124;28;19959;-80
2023/08/23 04:23:59;;;;;;;;;;;;;;;21.65;nan;101885.09;5057721;28;20645;-80
2023/08/23 04:26:25;;;;;;;;;;;;;;;21.65;nan;101885.91;5057056;28;19920;-79
2023/08/23 04:28:50;;;;;;;;;;;;;;;21.68;nan;101887.22;5061013;28;19931;-80
2023/08/23 04:31:16;;;;;;;;;;;;;;;21.71;nan;101889.38;5058963;28;20493;-79
2023/08/23 04:33:42;;;;;;;;;;;;;;;21.74;nan;101894.25;5061833;28;19928;-79
2023/08/23 04:36:07;;;;;;;;;;;;;;;21.77;nan;101890.13;5062487;28;19947;-79
2023/08/23 04:38:32;;;;;;;;;;;;;;;21.78;nan;101889.81;5068896;28;20395;-80
2023/08/23 04:40:59;;;;;;;;;;;;;;;21.80;nan;101884.88;5067228;28;19916;-80
2023/08/23 04:43:24;;;;;;;;;;;;;;;21.83;nan;101887.00;5066035;28;19931;-80
2023/08/23 04:45:49;;;;;;;;;;;;;;;21.89;nan;101885.81;5068265;28;20439;-80
2023/08/23 04:48:15;;;;;;;;;;;;;;;21.94;nan;101888.47;5072326;28;19967;-80
2023/08/23 04:50:40;;;;;;;;;;;;;;;22.00;nan;101891.94;5071399;28;19923;-80
2023/08/23 04:53:05;;;;;;;;;;;;;;;22.06;nan;101895.41;5072755;28;20273;-80
2023/08/23 04:55:30;;;;;;;;;;;;;;;22.10;nan;101889.09;5064773;28;19978;-80
2023/08/23 04:57:56;;;;;;;;;;;;;;;22.15;nan;101888.19;5073033;28;19921;-80
2023/08/23 05:00:21;;;;;;;;;;;;;;;22.19;nan;101879.09;5073861;28;20011;-80
2023/08/23 05:02:46;;;;;;;;;;;;;;;22.23;nan;101874.66;5070324;28;19924;-80
2023/08/23 05:05:12;;;;;;;;;;;;;;;22.29;nan;101880.84;5068250;28;20366;-80
2023/08/23 05:07:37;;;;;;;;;;;;;;;22.33;nan;101879.13;5072062;28;20372;-80
2023/08/23 05:10:04;;;;;;;;;;;;;;;22.41;nan;101878.44;5067006;28;19917;-80
2023/08/23 05:12:29;;;;;;;;;;;;;;;22.48;nan;101876.13;5067794;28;19927;-80
2023/08/23 05:14:55;;;;;;;;;;;;;;;22.56;nan;101882.81;5068116;28;20007;-80
2023/08/23 05:17:21;;;;;;;;;;;;;;;22.64;nan;101873.13;5072228;28;20012;-80
2023/08/23 05:19:46;;;;;;;;;;;;;;;22.74;nan;101872.91;5062246;28;19917;-80
2023/08/23 05:22:12;;;;;;;;;;;;;;;22.86;nan;101882.28;5066527;28;19916;-80
2023/08/23 05:24:37;;;;;;;;;;;;;;;22.99;nan;101875.19;5067272;28;19974;-80
2023/08/23 05:27:02;;;;;;;;;;;;;;;23.07;nan;101877.22;5060552;28;20410;-80
2023/08/23 05:29:28;;;;;;;;;;;;;;;23.15;nan;101881.94;5067581;28;19923;-79
2023/08/23 05:31:53;;;;;;;;;;;;;;;23.24;nan;101875.78;5062196;28;19994;-79
2023/08/23 05:34:18;;;;;;;;;;;;;;;23.31;nan;101890.63;5062030;28;19947;-80
2023/08/23 05:36:44;;;;;;;;;;;;;;;23.37;nan;101885.88;5068439;28;19995;-80
2023/08/23 05:39:09;;;;;;;;;;;;;;;23.44;nan;101886.25;5058696;28;19916;-80
2023/08/23 05:41:34;;;;;;;;;;;;;;;23.50;nan;101887.75;5067882;28;19974;-80
2023/08/23 05:44:00;;;;;;;;;;;;;;;23.56;nan;101886.56;5066155;28;20357;-80
2023/08/23 05:46:25;;;;;;;;;;;;;;;23.62;nan;101885.34;5066969;28;19955;-80
2023/08/23 05:48:50;;;;;;;;;;;;;;;23.68;nan;101892.31;5066624;28;19924;-80
2023/08/23 05:51:16;;;;;;;;;;;;;;;23.75;nan;101887.22;5067855;28;20299;-80
2023/08/23 05:53:41;;;;;;;;;;;;;;;23.79;nan;101882.75;5065736;28;19927;-80
2023/08/23 05:56:07;;;;;;;;;;;;;;;23.85;nan;101893.56;5061160;28;19931;-80
2023/08/23 05:58:32;;;;;;;;;;;;;;;23.90;nan;101888.00;5066282;28;20023;-80
2023/08/23 06:00:57;;;;;;;;;;;;;;;23.99;nan;101886.13;5066123;28;19916;-80
2023/08/23 06:03:23;;;;;;;;;;;;;;;24.10;nan;101882.81;5068447;28;20367;-80
2023/08/23 06:05:52;;;;;;;;;;;;;;;24.24;nan;101888.25;5063701;28;19931;-80
2023/08/23 06:08:17;;;;;;;;;;;;;;;24.38;nan;101888.97;5062274;28;19981;-80
2023/08/23 06:10:42;;;;;;;;;;;;;;;24.52;nan;101877.13;5060615;28;19916;-80
2023/08/23 06:13:07;;;;;;;;;;;;;;;24.60;nan;101890.88;5064038;28;20335;-79
2023/08/23 06:15:33;;;;;;;;;;;;;;;24.70;nan;101884.31;5061424;28;20369;-80
2023/08/23 06:17:58;;;;;;;;;;;;;;;24.81;nan;101888.38;5063678;28;19917;-80
2023/08/23 06:20:23;;;;;;;;;;;;;;;24.91;nan;101896.31;5062226;28;20388;-80
2023/08/23 06:22:49;;;;;;;;;;;;;;;25.02;nan;101894.13;5064469;28;20479;-80
2023/08/23 06:25:14;;;;;;;;;;;;;;;25.11;nan;101894.13;5061611;28;19924;-80
2023/08/23 06:27:39;;;;;;;;;;;;;;;25.22;nan;101884.50;5061614;28;19917;-80
2023/08/23 06:30:05;;;;;;;;;;;;;;;25.32;nan;101889.69;5064347;28;19921;-80
2023/08/23 06:32:30;;;;;;;;;;;;;;;25.43;nan;101884.69;5059747;28;19979;-79
2023/08/23 06:34:56;;;;;;;;;;;;;;;25.56;nan;101894.72;5068870;28;20017;-80
2023/08/23 06:37:21;;;;;;;;;;;;;;;25.72;nan;101889.59;5065883;28;19920;-80
2023/08/23 06:39:47;;;;;;;;;;;;;;;25.82;nan;101884.56;5066914;28;19916;-80
2023/08/23 06:42:13;;;;;;;;;;;;;;;25.93;nan;101885.06;5062620;28;19923;-80
2023/08/23 06:44:38;;;;;;;;;;;;;;;26.04;nan;101889.09;5059642;28;19924;-80
2023/08/23 06:47:04;;;;;;;;;;;;;;;26.13;nan;101892.63;5065788;28;20341;-79
2023/08/23 06:49:29;;;;;;;;;;;;;;;26.23;nan;101886.00;5058748;28;19955;-80
2023/08/23 06:51:55;;;;;;;;;;;;;;;26.31;nan;101887.09;5062940;28;20002;-79
2023/08/23 06:54:20;;;;;;;;;;;;;;;26.43;nan;101882.56;5060654;28;19959;-80
2023/08/23 06:56:46;;;;;;;;;;;;;;;26.56;nan;101883.47;5058930;28;20011;-80
2023/08/23 06:59:11;;;;;;;;;;;;;;;26.71;nan;101887.63;5065720;28;20401;-79
2023/08/23 07:01:36;;;;;;;;;;;;;;;26.82;nan;101885.34;5061274;28;20002;-80
2023/08/23 07:04:02;;;;;;;;;;;;;;;27.02;nan;101892.84;5074712;28;19924;-80
2023/08/23 07:06:29;;;;;;;;;;;;;;;27.23;nan;101882.69;5059607;28;20257;-80
2023/08/23 07:08:54;;;;;;;;;;;;;;;27.46;nan;101882.38;5066143;28;20277;-80
2023/08/23 07:11:20;;;;;;;;;;;;;;;27.59;nan;101889.56;5068242;28;19950;-80
2023/08/23 07:13:45;;;;;;;;;;;;;;;27.68;nan;101877.38;5062274;28;20429;-80
2023/08/23 07:16:10;;;;;;;;;;;;;;;27.82;nan;101885.34;5061680;28;19916;-80
2023/08/23 07:18:36;;;;;;;;;;;;;;;27.94;nan;101892.84;5057547;28;19917;-80
2023/08/23 07:21:03;;;;;;;;;;;;;;;28.06;nan;101884.66;5060810;28;20012;-80
2023/08/23 07:23:28;;;;;;;;;;;;;;;28.19;nan;101878.03;5063312;28;19922;-80
2023/08/23 07:25:54;;;;;;;;;;;;;;;28.33;nan;101888.75;5061438;28;19924;-80
2023/08/23 07:28:19;;;;;;;;;;;;;;;28.41;nan;101889.81;5061850;28;19924;-80
2023/08/23 07:30:46;;;;;;;;;;;;;;;28.49;nan;101886.94;5065421;28;19924;-80
2023/08/23 07:33:11;;;;;;;;;;;;;;;28.61;nan;101890.88;5065362;28;20273;-80
2023/08/23 07:35:37;;;;;;;;;;;;;;;28.78;nan;101887.91;5059674;28;19923;-80
2023/08/23 07:38:02;;;;;;;;;;;;;;;28.95;nan;101890.47;5060320;28;19943;-80
2023/08/23 07:40:27;;;;;;;;;;;;;;;29.06;nan;101890.78;5065811;28;19925;-80
2023/08/23 07:42:53;;;;;;;;;;;;;;;29.10;nan;101889.78;5065044;28;19927;-80
2023/08/23 07:45:18;;;;;;;;;;;;;;;29.19;nan;101886.88;5058142;28;20041;-80
2023/08/23 07:47:43;;;;;;;;;;;;;;;29.22;nan;101886.19;5064336;28;19962;-80
2023/08/23 07:50:09;;;;;;;;;;;;;;;29.21;nan;101883.75;5062582;28;19962;-80
2023/08/23 07:52:35;;;;;;;;;;;;;;;29.21;nan;101890.09;5059486;28;19935;-80
2023/08/23 07:55:00;;;;;;;;;;;;;;;29.29;nan;101888.38;5057473;28;19993;-80
2023/08/23 07:57:26;;;;;;;;;;;;;;;29.43;nan;101888.78;5056147;28;20015;-80
2023/08/23 07:59:52;;;;;;;;;;;;;;;29.63;nan;101885.09;5059711;28;19993;-80
2023/08/23 08:02:18;;;;;;;;;;;;;;;29.72;nan;101891.25;5059026;28;20210;-80
2023/08/23 08:04:43;;;;;;;;;;;;;;;29.90;nan;101889.00;5057769;28;19970;-80
2023/08/23 08:07:08;;;;;;;;;;;;;;;30.09;nan;101893.88;5066502;28;20364;-80
2023/08/23 08:09:34;;;;;;;;;;;;;;;30.18;nan;101894.53;5051236;28;19964;-81
2023/08/23 08:11:59;;;;;;;;;;;;;;;30.33;nan;101893.75;5061916;28;19956;-81
2023/08/23 08:14:24;;;;;;;;;;;;;;;30.49;nan;101888.22;5060805;28;20269;-80
2023/08/23 08:16:50;;;;;;;;;;;;;;;30.67;nan;101888.69;5058536;28;19934;-80
2023/08/23 08:19:15;;;;;;;;;;;;;;;30.81;nan;101888.25;5065734;28;20392;-80
2023/08/23 08:21:40;;;;;;;;;;;;;;;30.91;nan;101894.06;5057792;28;19935;-81
2023/08/23 08:24:06;;;;;;;;;;;;;;;30.96;nan;101881.91;5060045;28;20016;-81
2023/08/23 08:26:31;;;;;;;;;;;;;;;30.98;nan;101891.44;5061821;28;19920;-81
2023/08/23 08:28:57;;;;;;;;;;;;;;;31.07;nan;101887.69;5063552;28;19920;-80
2023/08/23 08:31:22;;;;;;;;;;;;;;;31.26;nan;101887.75;5059537;28;19928;-80
2023/08/23 08:33:49;;;;;;;;;;;;;;;31.45;nan;101885.03;5061890;28;19921;-82
2023/08/23 08:36:15;;;;;;;;;;;;;;;31.67;nan;101896.53;5066588;28;20061;-81
2023/08/23 08:38:40;;;;;;;;;;;;;;;31.75;nan;101898.31;5068844;28;20419;-81
2023/08/23 08:41:06;;;;;;;;;;;;;;;31.82;nan;101892.94;5067255;28;20334;-81
2023/08/23 08:43:32;;;;;;;;;;;;;;;31.90;nan;101891.88;5062198;28;19920;-81
2023/08/23 08:45:57;;;;;;;;;;;;;;;31.94;nan;101892.75;5067819;28;20422;-81
2023/08/23 08:48:23;;;;;;;;;;;;;;;31.96;nan;101892.38;5060453;28;19939;-81
2023/08/23 08:50:49;;;;;;;;;;;;;;;32.03;nan;101892.53;5063704;28;20408;-80
2023/08/23 08:53:17;;;;;;;;;;;;;;;32.14;nan;101893.53;5062219;28;20024;-81
2023/08/23 08:55:44;;;;;;;;;;;;;;;32.24;nan;101903.22;5062478;28;19917;-81
2023/08/23 08:58:11;;;;;;;;;;;;;;;32.32;nan;101888.34;5062642;28;19980;-81
2023/08/23 09:00:37;;;;;;;;;;;;;;;32.44;nan;101888.16;5063550;28;19924;-81
2023/08/23 09:03:02;;;;;;;;;;;;;;;32.60;nan;101891.59;5070587;28;19916;-81
2023/08/23 09:05:28;;;;;;;;;;;;;;;32.72;nan;101891.41;5061053;28;20396;-81
2023/08/23 09:07:54;;;;;;;;;;;;;;;32.70;nan;101893.75;5066648;28;19920;-81
2023/08/23 09:10:20;;;;;;;;;;;;;;;32.73;nan;101892.22;5065005;28;19995;-81
2023/08/23 09:12:45;;;;;;;;;;;;;;;32.90;nan;101891.72;5066613;28;20558;-81
2023/08/23 09:15:10;;;;;;;;;;;;;;;33.09;nan;101890.00;5068845;28;19923;-81
2023/08/23 09:17:36;;;;;;;;;;;;;;;33.25;nan;101883.09;5060510;28;19917;-80
2023/08/23 09:20:08;;;;;;;;;;;;;;;33.38;nan;101882.88;5063487;28;19921;-80
2023/08/23 09:22:34;;;;;;;;;;;;;;;33.50;nan;101879.88;5058527;28;20055;-80
2023/08/23 09:25:05;;;;;;;;;;;;;;;33.52;nan;101874.72;5060445;28;19924;-80
2023/08/23 09:27:30;;;;;;;;;;;;;;;33.56;nan;101879.16;5058350;28;19926;-80
2023/08/23 09:29:58;;;;;;;;;;;;;;;33.62;nan;101887.97;5063903;28;20380;-81
2023/08/23 09:32:25;;;;;;;;;;;;;;;33.63;nan;101876.47;5065291;28;20380;-81
2023/08/23 09:34:50;;;;;;;;;;;;;;;33.80;nan;101877.06;5063879;28;20074;-81
2023/08/23 09:37:17;;;;;;;;;;;;;;;33.88;nan;101884.31;5062088;28;20087;-81
2023/08/23 09:39:42;;;;;;;;;;;;;;;33.91;nan;101878.78;5061727;28;20011;-81
2023/08/23 09:42:13;;;;;;;;;;;;;;;33.92;nan;101885.94;5065951;28;20003;-81
2023/08/23 09:44:46;;;;;;;;;;;;;;;33.91;nan;101876.00;5062311;28;19921;-81
2023/08/23 09:47:15;;;;;;;;;;;;;;;33.99;nan;101881.66;5062633;28;19970;-82
2023/08/23 09:49:41;;;;;;;;;;;;;;;34.12;nan;101880.22;5057657;28;19923;-82
2023/08/23 09:52:09;;;;;;;;;;;;;;;34.15;nan;101871.91;5067797;28;19927;-81
2023/08/23 09:54:53;;;;;;;;;;;;;;;34.18;nan;101878.69;5064261;28;19920;-81
2023/08/23 09:57:20;;;;;;;;;;;;;;;34.17;nan;101877.09;5056847;28;19917;-82
2023/08/23 09:59:45;;;;;;;;;;;;;;;34.05;nan;101882.91;5061085;28;19917;-82
2023/08/23 10:02:11;;;;;;;;;;;;;;;33.94;nan;101883.63;5058838;28;20442;-82
2023/08/23 10:04:42;;;;;;;;;;;;;;;33.90;nan;101879.97;5065152;28;19916;-82
2023/08/23 10:07:08;;;;;;;;;;;;;;;33.89;nan;101881.16;5057793;28;19921;-82
2023/08/23 10:09:34;;;;;;;;;;;;;;;33.82;nan;101881.06;5063438;28;20063;-83
2023/08/23 10:12:01;;;;;;;;;;;;;;;33.81;nan;101873.91;5058680;28;19920;-82
2023/08/23 10:14:26;;;;;;;;;;;;;;;33.87;nan;101872.41;5059911;28;20440;-82
2023/08/23 10:16:52;;;;;;;;;;;;;;;34.04;nan;101861.84;5068867;28;20003;-82
2023/08/23 10:19:19;;;;;;;;;;;;;;;34.14;nan;101858.38;5061292;28;19920;-82
2023/08/23 10:21:44;;;;;;;;;;;;;;;34.20;nan;101862.41;5054655;28;19917;-82
2023/08/23 10:24:11;;;;;;;;;;;;;;;34.26;nan;101846.94;5055900;28;19920;-83
2023/08/23 10:26:44;;;;;;;;;;;;;;;34.33;nan;101858.16;5060192;28;19947;-82
2023/08/23 10:29:09;;;;;;;;;;;;;;;34.18;nan;101854.44;5053598;28;20063;-82
2023/08/23 10:31:35;;;;;;;;;;;;;;;34.10;nan;101860.31;5057409;28;20335;-82
2023/08/23 10:34:01;;;;;;;;;;;;;;;34.05;nan;101844.78;5056119;28;19927;-82
2023/08/23 10:36:27;;;;;;;;;;;;;;;34.08;nan;101841.22;5062573;28;20380;-83
2023/08/23 10:38:56;;;;;;;;;;;;;;;34.15;nan;101854.41;5059832;28;19931;-83
2023/08/23 10:41:25;;;;;;;;;;;;;;;34.15;nan;101846.88;5061379;28;20402;-83
2023/08/23 10:43:51;;;;;;;;;;;;;;;34.17;nan;101850.06;5059415;28;19924;-83
2023/08/23 10:46:21;;;;;;;;;;;;;;;34.22;nan;101851.69;5060005;28;20380;-82
2023/08/23 10:48:47;;;;;;;;;;;;;;;34.22;nan;101854.47;5057990;28;20217;-83
2023/08/23 10:51:13;;;;;;;;;;;;;;;34.15;nan;101848.84;5061943;28;20311;-83
2023/08/23 10:53:40;;;;;;;;;;;;;;;34.14;nan;101848.06;5058631;28;19921;-82
2023/08/23 10:56:05;;;;;;;;;;;;;;;34.27;nan;101856.91;5063087;28;20340;-83
2023/08/23 10:58:31;;;;;;;;;;;;;;;34.46;nan;101853.91;5060834;28;20148;-83
2023/08/23 11:00:57;;;;;;;;;;;;;;;34.63;nan;101843.31;5061145;28;19920;-83
2023/08/23 11:03:22;;;;;;;;;;;;;;;34.71;nan;101847.75;5064369;28;19923;-83
2023/08/23 11:05:48;;;;;;;;;;;;;;;34.61;nan;101848.47;5064374;28;20475;-83
2023/08/23 11:08:13;;;;;;;;;;;;;;;34.44;nan;101858.25;5068218;28;19916;-82
2023/08/23 11:10:40;;;;;;;;;;;;;;;34.29;nan;101848.16;5066832;28;19926;-83
2023/08/23 11:13:05;;;;;;;;;;;;;;;34.21;nan;101841.75;5063051;28;20212;-82
2023/08/23 11:15:31;;;;;;;;;;;;;;;34.14;nan;101836.13;5060385;28;20343;-82
2023/08/23 11:17:57;;;;;;;;;;;;;;;34.14;nan;101836.13;5063568;28;19928;-82
2023/08/23 11:20:22;;;;;;;;;;;;;;;34.17;nan;101846.50;5061737;28;19932;-81
2023/08/23 11:22:48;;;;;;;;;;;;;;;34.11;nan;101836.88;5052390;28;20459;-83
2023/08/23 11:25:13;;;;;;;;;;;;;;;34.10;nan;101840.84;5062332;28;19920;-83
2023/08/23 11:27:38;;;;;;;;;;;;;;;34.10;nan;101836.09;5059994;28;19927;-83
2023/08/23 11:30:04;;;;;;;;;;;;;;;34.11;nan;101837.72;5056193;28;19916;-83
2023/08/23 11:32:30;;;;;;;;;;;;;;;34.17;nan;101836.16;5063024;28;19930;-83
2023/08/23 11:34:55;;;;;;;;;;;;;;;34.24;nan;101836.22;5065986;28;19927;-83
2023/08/23 11:37:22;;;;;;;;;;;;;;;34.37;nan;101830.41;5056864;28;20380;-83
2023/08/23 11:39:57;;;;;;;;;;;;;;;34.53;nan;101830.91;5059571;28;19921;-83
2023/08/23 11:42:24;;;;;;;;;;;;;;;34.73;nan;101825.88;5064919;28;19926;-83
2023/08/23 11:44:49;;;;;;;;;;;;;;;34.93;nan;101824.44;5058386;28;19924;-83
2023/08/23 11:47:14;;;;;;;;;;;;;;;35.12;nan;101824.16;5057124;28;19931;-83
2023/08/23 11:49:39;;;;;;;;;;;;;;;35.18;nan;101826.53;5065446;28;20196;-83
2023/08/23 11:52:05;;;;;;;;;;;;;;;35.12;nan;101821.38;5060994;28;20015;-82
2023/08/23 11:54:30;;;;;;;;;;;;;;;35.13;nan;101830.50;5061421;28;20373;-82
2023/08/23 11:56:58;;;;;;;;;;;;;;;35.25;nan;101821.81;5069441;28;19916;-83
2023/08/23 11:59:24;;;;;;;;;;;;;;;35.35;nan;101811.91;5068216;28;19927;-84
2023/08/23 12:01:49;;;;;;;;;;;;;;;35.40;nan;101801.22;5067267;28;19924;-83
2023/08/23 12:04:14;;;;;;;;;;;;;;;35.56;nan;101806.44;5068917;28;20611;-85
2023/08/23 12:06:40;;;;;;;;;;;;;;;35.65;nan;101811.63;5067914;28;19943;-87
2023/08/23 12:09:05;;;;;;;;;;;;;;;35.67;nan;101810.03;5067576;28;19932;-83
2023/08/23 12:11:32;;;;;;;;;;;;;;;35.72;nan;101806.84;5064054;28;20310;-81
2023/08/23 12:13:58;;;;;;;;;;;;;;;35.71;nan;101802.47;5059370;28;19927;-82
2023/08/23 12:16:23;;;;;;;;;;;;;;;35.82;nan;101801.69;5068305;28;19920;-82
2023/08/23 12:18:48;;;;;;;;;;;;;;;35.94;nan;101799.38;5058809;28;20431;-81
2023/08/23 12:21:14;;;;;;;;;;;;;;;36.09;nan;101796.56;5065170;28;20003;-82
2023/08/23 12:23:40;;;;;;;;;;;;;;;36.14;nan;101790.59;5065109;28;19919;-82
2023/08/23 12:26:05;;;;;;;;;;;;;;;36.21;nan;101785.00;5064231;28;19943;-82
2023/08/23 12:28:30;;;;;;;;;;;;;;;36.20;nan;101787.00;5060119;28;19943;-83
2023/08/23 12:30:56;;;;;;;;;;;;;;;36.07;nan;101782.22;5059727;28;19925;-84
2023/08/23 12:33:22;;;;;;;;;;;;;;;35.98;nan;101779.84;5065935;28;20492;-83
2023/08/23 12:35:47;;;;;;;;;;;;;;;36.01;nan;101779.03;5064117;28;19944;-81
2023/08/23 12:38:12;;;;;;;;;;;;;;;36.19;nan;101777.03;5068028;28;19928;-81
2023/08/23 12:40:38;;;;;;;;;;;;;;;36.34;nan;101775.06;5064408;28;19920;-81
2023/08/23 12:43:04;;;;;;;;;;;;;;;36.46;nan;101776.66;5059307;28;19934;-81
2023/08/23 12:45:29;;;;;;;;;;;;;;;36.60;nan;101779.41;5061386;28;19916;-81
2023/08/23 12:47:54;;;;;;;;;;;;;;;36.81;nan;101790.56;5061808;28;19959;-83
2023/08/23 12:50:20;;;;;;;;;;;;;;;37.02;nan;101789.69;5057951;28;20275;-81